Weather at DeKalb Peachtree Airport

Public forecast

Using degrees Fahrenheit for public forecast. Weather courtesy of forecast.io.

Current aviation weather report (METAR) for DeKalb Peachtree Airport

Retrieved 2021/04/15 15:53 UTC (46 minutes ago):

KPDK 151553Z 31006KT 10SM BKN110 16/09 A2994 RMK AO2 SLP133 T01610094

Aviation forecast (TAF) for DeKalb Peachtree Airport

Retrieved 2021/04/15 12:24 UTC (4 hours ago):

TAF KPDK 151123Z 1512/1612 29007KT P6SM SCT007 OVC015 TEMPO 1512/1513 6SM BR BKN007 FM151300 30007KT P6SM BKN025 FM151400 32009KT P6SM BKN040 FM151700 33010G17KT P6SM FEW040 SCT150 FM152100 33012G20KT P6SM FEW250 FM160400 34007KT P6SM FEW250